createdAt,value
2023-04-13T00:01:59.944Z,9.93
2023-04-13T00:07:25.042Z,9.79
2023-04-13T00:12:49.990Z,9.69
2023-04-13T00:18:14.101Z,10.61
2023-04-13T00:23:39.702Z,13.05
2023-04-13T00:29:04.435Z,14.29
2023-04-13T00:34:28.463Z,15.07
2023-04-13T00:39:53.619Z,15.64
2023-04-13T00:45:19.786Z,15.41
2023-04-13T00:50:45.044Z,13.77
2023-04-13T00:56:11.162Z,12.59
2023-04-13T01:01:46.331Z,11.74
2023-04-13T01:07:26.518Z,11.06
2023-04-13T01:13:16.259Z,10.56
2023-04-13T01:18:54.487Z,10.18
2023-04-13T01:24:37.508Z,9.92
2023-04-13T01:30:03.073Z,9.85
2023-04-13T01:35:29.735Z,9.86
2023-04-13T01:40:54.854Z,10.81
2023-04-13T01:46:26.184Z,13.07
2023-04-13T01:51:58.588Z,14.35
2023-04-13T01:57:28.789Z,15.07
2023-04-13T02:02:55.969Z,14.91
2023-04-13T02:08:21.087Z,13.39
2023-04-13T02:13:46.922Z,12.22
2023-04-13T02:19:15.673Z,11.39
2023-04-13T02:24:40.969Z,10.85
2023-04-13T02:30:08.008Z,10.50
2023-04-13T02:35:33.915Z,10.22
2023-04-13T02:41:00.923Z,10.03
2023-04-13T02:46:26.012Z,9.88
2023-04-13T02:51:56.674Z,9.74
2023-04-13T02:57:32.522Z,9.61
2023-04-13T03:02:58.513Z,9.49
2023-04-13T03:08:27.711Z,9.39
2023-04-13T03:14:01.871Z,10.23
2023-04-13T03:19:27.652Z,12.22
2023-04-13T03:24:53.598Z,13.27
2023-04-13T03:30:25.480Z,13.87
2023-04-13T03:35:53.505Z,14.14
2023-04-13T03:41:23.971Z,13.69
2023-04-13T03:46:48.413Z,11.95
2023-04-13T03:52:26.734Z,10.68
2023-04-13T03:57:56.525Z,9.86
2023-04-13T04:03:26.227Z,9.39
2023-04-13T04:08:57.405Z,10.08
2023-04-13T04:14:31.544Z,12.41
2023-04-13T04:20:12.221Z,13.52
2023-04-13T04:25:38.442Z,14.04
2023-04-13T04:31:05.384Z,14.51
2023-04-13T04:36:29.748Z,14.18
2023-04-13T04:41:56.134Z,12.33
2023-04-13T04:47:22.131Z,11.01
2023-04-13T04:52:59.735Z,10.19
2023-04-13T04:58:24.316Z,9.81
2023-04-13T05:03:51.828Z,9.67
2023-04-13T05:09:27.053Z,10.67
2023-04-13T05:14:52.813Z,12.64
2023-04-13T05:20:18.309Z,13.77
2023-04-13T05:25:48.899Z,14.16
2023-04-13T05:31:19.554Z,12.80
2023-04-13T05:36:45.586Z,12.07
2023-04-13T05:42:11.897Z,13.61
2023-04-13T05:47:41.687Z,14.17
2023-04-13T05:53:11.520Z,12.84
2023-04-13T05:58:49.080Z,11.91
2023-04-13T06:04:24.405Z,12.53
2023-04-13T06:09:50.567Z,14.39
2023-04-13T06:15:16.156Z,14.01
2023-04-13T06:20:42.416Z,12.58
2023-04-13T06:26:07.783Z,13.00
2023-04-13T06:31:43.798Z,14.12
2023-04-13T06:37:12.337Z,12.89
2023-04-13T06:42:43.163Z,12.31
2023-04-13T06:48:26.133Z,13.46
2023-04-13T06:53:53.899Z,12.47
2023-04-13T06:59:18.507Z,12.52
2023-04-13T07:04:43.497Z,13.87
2023-04-13T07:10:08.838Z,12.82
2023-04-13T07:15:37.914Z,11.88
2023-04-13T07:21:02.972Z,11.37
2023-04-13T07:26:32.833Z,11.07
2023-04-13T07:32:02.852Z,11.00
2023-04-13T07:37:29.316Z,12.13
2023-04-13T07:42:54.099Z,14.56
2023-04-13T07:48:19.847Z,15.13
2023-04-13T07:53:43.981Z,13.84
2023-04-13T07:59:09.252Z,12.95
2023-04-13T08:04:34.711Z,12.53
2023-04-13T08:10:01.044Z,12.28
2023-04-13T08:15:29.467Z,12.04
2023-04-13T08:20:57.939Z,11.86
2023-04-13T08:26:25.220Z,11.82
2023-04-13T08:31:50.869Z,11.81
2023-04-13T08:37:16.566Z,11.85
2023-04-13T08:42:42.582Z,11.88
2023-04-13T08:48:10.468Z,11.86
2023-04-13T08:53:35.483Z,11.83
2023-04-13T08:59:07.185Z,11.74
2023-04-13T09:04:37.671Z,11.60
2023-04-13T09:10:06.218Z,12.02
2023-04-13T09:15:33.166Z,13.24
2023-04-13T09:21:40.728Z,12.32
2023-04-13T09:27:05.819Z,11.79
2023-04-13T09:32:30.200Z,11.52
2023-04-13T09:37:56.482Z,11.45
2023-04-13T09:43:20.901Z,11.41
2023-04-13T09:48:45.765Z,11.43
2023-04-13T09:54:12.395Z,11.47
2023-04-13T09:59:37.397Z,11.50
2023-04-13T10:05:03.117Z,11.54
2023-04-13T10:10:28.280Z,11.52
2023-04-13T10:16:04.152Z,11.55
2023-04-13T10:21:36.741Z,11.64
2023-04-13T10:27:11.875Z,11.78
2023-04-13T10:32:37.601Z,11.92
2023-04-13T10:38:02.876Z,11.91
2023-04-13T10:43:29.045Z,11.88
2023-04-13T10:48:59.652Z,11.81
2023-04-13T10:54:30.438Z,11.79
2023-04-13T10:59:59.308Z,11.90
2023-04-13T11:05:26.934Z,12.06
2023-04-13T11:10:56.587Z,12.14
2023-04-13T11:16:22.216Z,12.15
2023-04-13T11:21:55.537Z,12.08
2023-04-13T11:27:22.206Z,11.94
2023-04-13T11:32:46.280Z,11.79
2023-04-13T11:38:18.068Z,12.65
2023-04-13T11:43:42.330Z,15.30
2023-04-13T11:49:06.870Z,16.69
2023-04-13T11:54:31.539Z,17.53
2023-04-13T11:59:56.267Z,17.47
2023-04-13T12:05:32.802Z,15.77
2023-04-13T12:11:39.082Z,14.17
2023-04-13T12:22:20.444Z,12.85
2023-04-13T12:27:45.201Z,12.51
2023-04-13T12:33:09.300Z,12.40
2023-04-13T12:38:35.022Z,12.32
2023-04-13T12:43:58.942Z,12.30
2023-04-13T12:49:23.370Z,12.30
2023-04-13T12:54:47.583Z,12.33
2023-04-13T13:00:12.898Z,12.41
2023-04-13T13:05:37.605Z,12.48
2023-04-13T13:11:02.629Z,12.50
2023-04-13T13:16:27.432Z,12.59
2023-04-13T13:21:51.667Z,12.59
2023-04-13T13:27:48.724Z,12.68
2023-04-13T13:32:59.556Z,12.80
2023-04-13T13:38:23.727Z,12.73
2023-04-13T13:43:47.701Z,12.78
2023-04-13T13:49:12.180Z,12.85
2023-04-13T13:55:05.737Z,12.84
2023-04-13T14:00:31.667Z,12.77
2023-04-13T14:05:56.229Z,12.70
2023-04-13T14:11:20.876Z,12.61
2023-04-13T14:16:45.665Z,12.45
2023-04-13T14:22:10.944Z,12.40
2023-04-13T14:27:35.652Z,12.39
2023-04-13T14:32:59.305Z,12.34
2023-04-13T14:38:24.085Z,12.28
2023-04-13T14:43:48.828Z,12.24
2023-04-13T14:49:12.921Z,12.21
2023-04-13T14:54:37.216Z,12.16
2023-04-13T15:00:02.386Z,12.08
2023-04-13T15:05:28.393Z,12.01
2023-04-13T15:10:53.998Z,11.81
2023-04-13T15:16:18.148Z,11.75
2023-04-13T15:21:42.827Z,11.72
2023-04-13T15:27:06.988Z,11.72
2023-04-13T15:32:33.821Z,11.72
2023-04-13T15:38:01.386Z,11.73
2023-04-13T15:43:25.197Z,11.77
2023-04-13T15:48:50.687Z,11.80
2023-04-13T15:54:14.827Z,11.79
2023-04-13T15:59:39.272Z,11.74
2023-04-13T16:05:04.168Z,11.71
2023-04-13T16:10:29.102Z,11.68
2023-04-13T16:15:57.529Z,11.60
2023-04-13T16:21:22.966Z,11.43
2023-04-13T16:26:46.804Z,11.29
2023-04-13T16:32:11.441Z,11.18
2023-04-13T16:37:36.299Z,11.07
2023-04-13T16:43:03.750Z,11.05
2023-04-13T16:48:29.050Z,11.03
2023-04-13T16:53:54.582Z,11.02
2023-04-13T16:59:19.214Z,11.03
2023-04-13T17:04:43.626Z,11.01
2023-04-13T17:10:10.276Z,10.98
2023-04-13T17:15:34.909Z,10.96
2023-04-13T17:20:59.261Z,10.92
2023-04-13T17:26:23.029Z,10.83
2023-04-13T17:31:47.432Z,11.72
2023-04-13T17:37:11.984Z,14.24
2023-04-13T17:42:36.649Z,15.54
2023-04-13T17:48:01.895Z,16.38
2023-04-13T17:53:26.700Z,16.20
2023-04-13T17:58:50.870Z,14.32
2023-04-13T18:04:15.543Z,13.00
2023-04-13T18:09:40.138Z,12.15
2023-04-13T18:15:05.962Z,11.49
2023-04-13T18:20:30.898Z,11.05
2023-04-13T18:25:55.287Z,10.74
2023-04-13T18:31:19.549Z,10.41
2023-04-13T18:36:44.921Z,10.07
2023-04-13T18:42:09.558Z,9.62
2023-04-13T18:47:34.468Z,9.42
2023-04-13T18:52:59.022Z,10.40
2023-04-13T18:58:23.252Z,12.91
2023-04-13T19:03:49.552Z,14.29
2023-04-13T19:16:06.342Z,15.63
2023-04-13T19:21:31.630Z,15.27
2023-04-13T19:26:57.208Z,13.38
2023-04-13T19:32:22.528Z,12.05
2023-04-13T19:37:46.914Z,11.13
2023-04-13T19:43:11.047Z,10.49
2023-04-13T19:48:37.113Z,10.01
2023-04-13T19:54:05.371Z,9.64
2023-04-13T19:59:30.408Z,9.41
2023-04-13T20:04:54.984Z,9.24
2023-04-13T20:10:19.478Z,9.08
2023-04-13T20:15:44.353Z,9.95
2023-04-13T20:21:08.437Z,12.35
2023-04-13T20:26:32.805Z,13.69
2023-04-13T20:31:58.012Z,14.48
2023-04-13T20:37:22.441Z,15.02
2023-04-13T20:42:46.658Z,14.70
2023-04-13T20:53:38.628Z,11.63
2023-04-13T20:59:02.990Z,10.54
2023-04-13T21:04:27.708Z,9.91
2023-04-13T21:09:52.253Z,9.49
2023-04-13T21:15:16.271Z,9.05
2023-04-13T21:20:43.331Z,9.82
2023-04-13T21:26:08.078Z,12.33
2023-04-13T21:31:33.278Z,13.63
2023-04-13T21:36:58.026Z,14.39
2023-04-13T21:42:22.800Z,15.01
2023-04-13T21:47:47.527Z,14.67
2023-04-13T21:53:11.476Z,12.77
2023-04-13T21:58:41.409Z,11.25
2023-04-13T22:04:06.916Z,10.25
2023-04-13T22:09:31.830Z,9.67
2023-04-13T22:14:55.763Z,9.25
2023-04-13T22:20:20.021Z,8.89
2023-04-13T22:25:53.943Z,8.57
2023-04-13T22:31:17.892Z,9.45
2023-04-13T22:36:42.584Z,11.86
2023-04-13T22:42:07.213Z,13.25
2023-04-13T22:47:31.810Z,14.13
2023-04-13T22:52:55.479Z,14.71
2023-04-13T22:58:19.386Z,14.42
2023-04-13T23:03:43.996Z,12.68
2023-04-13T23:09:09.019Z,11.42
2023-04-13T23:14:33.346Z,10.53
2023-04-13T23:19:57.296Z,9.83
2023-04-13T23:25:21.443Z,9.04
2023-04-13T23:30:45.729Z,8.62
2023-04-13T23:36:09.797Z,8.39
2023-04-13T23:41:34.937Z,9.25
2023-04-13T23:46:59.947Z,11.65
2023-04-13T23:52:24.011Z,12.96
2023-04-13T23:57:48.027Z,13.82
